createdAt,value
2022-11-08T16:07:07.728Z,11.50
2022-11-08T16:12:10.658Z,11.10
2022-11-08T16:17:13.336Z,11.40
2022-11-08T16:22:19.231Z,11.30
2022-11-08T16:27:22.215Z,11.30
2022-11-08T16:32:32.980Z,11.20
2022-11-08T16:37:35.834Z,11.10
2022-11-08T16:42:38.441Z,10.90
2022-11-08T16:47:41.041Z,10.80
2022-11-08T16:52:43.765Z,10.70
2022-11-08T16:57:46.616Z,10.60
2022-11-08T17:02:49.247Z,10.50
2022-11-08T17:07:52.124Z,10.30
2022-11-08T17:12:54.824Z,10.20
2022-11-08T17:17:58.562Z,10.20
2022-11-08T17:23:01.257Z,10.20
2022-11-08T17:28:05.268Z,10.00
2022-11-08T17:33:08.413Z,10.00
2022-11-08T17:38:11.383Z,10.00
2022-11-08T17:43:16.197Z,10.00
2022-11-08T17:53:24.524Z,9.90
2022-11-08T17:58:27.128Z,9.60
2022-11-08T18:03:30.228Z,9.80
2022-11-08T18:08:32.791Z,9.70
2022-11-08T18:13:36.983Z,9.70
2022-11-08T18:18:39.583Z,9.70
2022-11-08T18:23:42.185Z,9.80
2022-11-08T18:28:44.856Z,9.90
2022-11-08T18:33:47.562Z,10.10
2022-11-08T18:38:51.297Z,10.10
2022-11-08T18:43:53.908Z,10.20
2022-11-08T18:48:56.563Z,10.10
2022-11-08T18:54:00.183Z,10.00
2022-11-08T18:59:02.887Z,10.00
2022-11-08T19:04:05.671Z,10.20
2022-11-08T19:09:08.296Z,10.10
2022-11-08T19:14:11.047Z,10.00
2022-11-08T19:19:14.686Z,10.00
2022-11-08T19:24:17.458Z,10.00
2022-11-08T19:29:20.695Z,10.00
2022-11-08T19:34:24.740Z,10.00
2022-11-08T19:39:27.668Z,10.00
2022-11-08T19:44:31.819Z,10.00
2022-11-08T19:49:36.479Z,10.00
2022-11-08T19:54:39.423Z,10.10
2022-11-08T19:59:42.252Z,10.00
2022-11-08T20:04:46.227Z,10.00
2022-11-08T20:09:49.019Z,10.10
2022-11-08T20:14:51.674Z,10.10
2022-11-08T20:19:58.584Z,10.30
2022-11-08T20:25:01.386Z,10.20
2022-11-08T20:30:04.229Z,10.30
2022-11-08T20:35:08.622Z,10.40
2022-11-08T20:40:11.512Z,10.30
2022-11-08T20:45:15.355Z,10.30
2022-11-08T20:50:18.201Z,10.20
2022-11-08T20:55:20.836Z,10.00
2022-11-08T21:00:37.912Z,9.80
2022-11-08T21:05:46.615Z,9.70
2022-11-08T21:10:49.826Z,9.50
2022-11-08T21:15:52.862Z,9.30
2022-11-08T21:20:59.758Z,9.20
2022-11-08T21:26:04.777Z,9.10
2022-11-08T21:31:07.762Z,9.00
2022-11-08T21:36:10.734Z,9.10
2022-11-08T21:41:13.435Z,8.80
2022-11-08T21:46:16.085Z,8.70
2022-11-08T21:51:18.838Z,8.60
2022-11-08T21:56:22.045Z,8.60
2022-11-08T22:01:29.989Z,8.50
2022-11-08T22:06:34.364Z,8.50
2022-11-08T22:11:38.838Z,8.40
2022-11-08T22:16:41.609Z,8.50
2022-11-08T22:21:46.189Z,8.50
2022-11-08T22:26:48.986Z,8.40
2022-11-08T22:31:52.160Z,8.40
2022-11-08T22:36:54.868Z,8.40
2022-11-08T22:41:57.785Z,8.50
2022-11-08T22:47:00.533Z,8.40
